Time;durP1;ratioP1;P1;durP2;ratioP2;P2;SDS_P1;SDS_P2;PMS_P1;PMS_P2;Temp;Humidity;BMP_temperature;BMP_pressure;BME280_temperature;BME280_humidity;BME280_pressure;Samples;Min_cycle;Max_cycle;Signal;HPM_P1;HPM_P2
2022/03/28 00:02:00;;;;;;;17.80;9.17;;;;;;;12.15;51.36;97669.78;5074495;28;20444;-39
2022/03/28 00:04:29;;;;;;;16.10;9.83;;;;;;;12.13;51.18;97672.69;5074499;28;20483;-38
2022/03/28 00:06:56;;;;;;;16.40;9.63;;;;;;;12.09;51.79;97671.53;5074499;28;20999;-39
2022/03/28 00:09:24;;;;;;;20.77;12.00;;;;;;;12.01;51.92;97679.81;5075127;28;20444;-38
2022/03/28 00:11:51;;;;;;;17.23;10.50;;;;;;;11.88;52.08;97676.25;5074678;28;20818;-38
2022/03/28 00:14:19;;;;;;;14.03;9.73;;;;;;;11.83;52.32;97677.91;5074292;28;20475;-38
2022/03/28 00:16:46;;;;;;;24.17;10.80;;;;;;;11.75;52.54;97675.59;5074699;28;20451;-38
2022/03/28 00:19:13;;;;;;;23.93;10.00;;;;;;;11.68;52.63;97673.00;5074123;28;20487;-40
2022/03/28 00:21:42;;;;;;;13.77;9.33;;;;;;;11.62;52.99;97671.22;5074072;28;20963;-38
2022/03/28 00:24:09;;;;;;;18.70;11.27;;;;;;;11.65;53.06;97670.78;5074206;28;20470;-38
2022/03/28 00:26:36;;;;;;;24.20;10.30;;;;;;;11.65;53.00;97665.44;5074239;28;20482;-38
2022/03/28 00:29:04;;;;;;;23.03;11.13;;;;;;;11.68;53.00;97673.81;5074030;28;20536;-38
2022/03/28 00:31:31;;;;;;;19.03;11.40;;;;;;;11.68;52.98;97670.34;5073884;28;20807;-39
2022/03/28 00:33:58;;;;;;;18.30;10.63;;;;;;;11.66;53.33;97672.41;5073991;28;20443;-38
2022/03/28 00:36:26;;;;;;;19.80;11.83;;;;;;;11.68;53.26;97670.34;5074253;28;20448;-39
2022/03/28 00:38:54;;;;;;;20.00;11.00;;;;;;;11.64;53.16;97664.63;5073746;28;20471;-38
2022/03/28 00:41:21;;;;;;;21.87;10.00;;;;;;;11.69;52.95;97661.31;5073824;28;20455;-39
2022/03/28 00:43:56;;;;;;;22.53;12.83;;;;;;;11.70;52.80;97660.25;5073729;28;20440;-38
2022/03/28 00:46:24;;;;;;;25.33;11.50;;;;;;;11.66;52.77;97659.91;5073692;28;20831;-38
2022/03/28 00:48:53;;;;;;;24.50;12.90;;;;;;;11.68;53.12;97673.00;5073938;28;20509;-39
2022/03/28 00:51:21;;;;;;;22.13;12.43;;;;;;;11.60;53.53;97674.09;5073976;28;20493;-38
2022/03/28 00:53:50;;;;;;;25.73;13.50;;;;;;;11.57;53.29;97668.41;5073984;28;20439;-39
2022/03/28 00:56:19;;;;;;;24.90;12.80;;;;;;;11.38;53.51;97646.28;5074102;28;20467;-38
2022/03/28 00:58:47;;;;;;;23.90;14.27;;;;;;;11.54;53.63;97666.19;5073925;28;20444;-38
2022/03/28 01:01:15;;;;;;;26.00;13.80;;;;;;;11.55;53.50;97668.63;5073489;28;20448;-38
2022/03/28 01:03:43;;;;;;;27.90;15.37;;;;;;;11.52;53.25;97673.56;5073419;28;20534;-39
2022/03/28 01:06:10;;;;;;;28.67;14.77;;;;;;;11.50;53.54;97667.66;5073366;28;20497;-38
2022/03/28 01:08:38;;;;;;;30.93;14.27;;;;;;;11.39;53.47;97659.38;5073783;28;20452;-38
2022/03/28 01:11:06;;;;;;;28.47;13.30;;;;;;;11.40;53.90;97669.00;5073384;28;20535;-38
2022/03/28 01:13:36;;;;;;;17.37;13.17;;;;;;;11.36;53.83;97659.81;5073730;28;20440;-38
2022/03/28 01:16:04;;;;;;;21.23;12.03;;;;;;;11.37;53.45;97680.06;5073346;28;20479;-38
2022/03/28 01:18:31;;;;;;;24.87;12.73;;;;;;;11.31;53.96;97680.91;5073530;28;20450;-38
2022/03/28 01:21:00;;;;;;;19.30;12.60;;;;;;;11.28;54.03;97673.41;5073491;28;20443;-39
2022/03/28 01:23:28;;;;;;;19.77;13.70;;;;;;;11.25;53.98;97672.00;5073532;28;20479;-38
2022/03/28 01:25:56;;;;;;;25.43;12.87;;;;;;;11.15;54.51;97665.56;5073117;28;20500;-39
2022/03/28 01:28:25;;;;;;;21.07;12.50;;;;;;;11.18;54.35;97673.06;5073233;28;20954;-38
2022/03/28 01:30:54;;;;;;;27.03;14.13;;;;;;;11.14;54.45;97663.91;5073254;28;20452;-38
2022/03/28 01:33:22;;;;;;;28.83;13.10;;;;;;;11.10;54.39;97668.88;5073151;28;20451;-37
2022/03/28 01:35:51;;;;;;;21.87;11.70;;;;;;;11.06;54.22;97667.69;5073136;28;20543;-37
2022/03/28 01:38:21;;;;;;;27.43;13.60;;;;;;;11.05;54.05;97679.31;5073374;28;20462;-37
2022/03/28 01:40:50;;;;;;;20.80;11.37;;;;;;;11.02;54.45;97672.59;5073116;28;20452;-38
2022/03/28 01:43:18;;;;;;;27.07;13.07;;;;;;;10.91;54.74;97673.31;5073456;28;20493;-38
2022/03/28 01:45:46;;;;;;;23.30;11.53;;;;;;;10.84;55.09;97664.56;5073310;28;20993;-39
2022/03/28 01:48:14;;;;;;;23.20;11.83;;;;;;;10.78;55.16;97665.44;5073214;28;21060;-37
2022/03/28 01:50:41;;;;;;;27.50;15.77;;;;;;;10.69;55.46;97661.41;5073033;28;20530;-38
2022/03/28 01:53:09;;;;;;;28.47;16.20;;;;;;;10.53;55.76;97662.75;5072961;28;20919;-39
2022/03/28 01:55:39;;;;;;;23.43;11.50;;;;;;;10.32;56.38;97670.03;5073344;28;20843;-38
2022/03/28 01:58:06;;;;;;;17.33;10.03;;;;;;;10.12;56.85;97664.78;5073178;28;20444;-38
2022/03/28 02:00:33;;;;;;;12.30;8.60;;;;;;;10.02;57.14;97675.03;5072895;28;20443;-37
2022/03/28 02:03:01;;;;;;;23.60;10.57;;;;;;;9.92;57.86;97680.00;5072922;28;20444;-40
2022/03/28 02:05:28;;;;;;;18.10;9.63;;;;;;;9.89;58.04;97677.75;5073353;28;20991;-40
2022/03/28 02:07:56;;;;;;;22.27;9.50;;;;;;;9.88;58.50;97665.53;5073102;28;20447;-41
2022/03/28 02:10:24;;;;;;;13.93;9.97;;;;;;;9.92;58.42;97672.06;5072753;28;20955;-38
2022/03/28 02:12:53;;;;;;;12.87;8.87;;;;;;;9.97;58.18;97664.25;5072867;28;20936;-37
2022/03/28 02:15:21;;;;;;;17.90;10.20;;;;;;;10.00;57.96;97658.53;5075747;28;20570;-37
2022/03/28 02:17:49;;;;;;;14.40;9.77;;;;;;;10.03;57.76;97668.72;5076838;28;20448;-38
2022/03/28 02:20:16;;;;;;;18.00;8.67;;;;;;;10.01;57.74;97673.44;5075564;28;21123;-37
2022/03/28 02:22:45;;;;;;;15.13;9.37;;;;;;;10.00;57.69;97669.13;5076776;28;20526;-38
2022/03/28 02:25:13;;;;;;;15.30;9.77;;;;;;;9.97;57.81;97665.06;5076520;28;20924;-37
2022/03/28 02:27:41;;;;;;;15.40;10.07;;;;;;;9.96;57.90;97662.63;5076639;28;20451;-38
2022/03/28 02:30:11;;;;;;;16.70;9.53;;;;;;;9.79;57.97;97628.63;5076585;28;20452;-37
2022/03/28 02:32:39;;;;;;;21.13;10.13;;;;;;;9.97;58.08;97654.47;5076349;28;20802;-38
2022/03/28 02:35:08;;;;;;;17.90;9.67;;;;;;;9.96;58.25;97654.66;5076562;28;20787;-38
2022/03/28 02:37:36;;;;;;;16.07;9.97;;;;;;;9.93;58.13;97657.75;5076494;28;20465;-38
2022/03/28 02:40:04;;;;;;;13.50;8.97;;;;;;;9.94;57.92;97654.88;5076093;28;21013;-38
2022/03/28 02:42:32;;;;;;;14.13;8.20;;;;;;;9.94;58.19;97657.53;5076066;28;20490;-38
2022/03/28 02:44:59;;;;;;;19.33;10.20;;;;;;;9.94;58.28;97662.03;5076330;28;20810;-38
2022/03/28 02:47:27;;;;;;;21.40;9.87;;;;;;;9.91;58.22;97659.78;5076245;28;20827;-38
2022/03/28 02:49:55;;;;;;;12.60;8.07;;;;;;;9.85;57.79;97661.44;5076201;28;20440;-39
2022/03/28 02:52:22;;;;;;;17.33;9.47;;;;;;;9.77;58.26;97659.03;5076101;28;20446;-38
2022/03/28 02:54:49;;;;;;;11.73;8.30;;;;;;;9.70;58.73;97664.38;5077322;28;20796;-38
2022/03/28 02:57:17;;;;;;;13.47;7.57;;;;;;;9.66;58.75;97657.84;5076165;28;20475;-39
2022/03/28 02:59:44;;;;;;;16.53;7.93;;;;;;;9.63;58.90;97647.66;5076123;28;20448;-39
2022/03/28 03:02:12;;;;;;;22.03;8.20;;;;;;;9.60;59.27;97648.91;5093337;28;20937;-38
2022/03/28 03:04:40;;;;;;;18.30;8.67;;;;;;;9.63;59.00;97647.66;5095988;28;20443;-38
2022/03/28 03:07:08;;;;;;;10.50;7.57;;;;;;;9.61;59.00;97657.66;5095770;28;20490;-38
2022/03/28 03:09:35;;;;;;;16.57;10.97;;;;;;;9.60;58.76;97642.78;5096135;28;20469;-38
2022/03/28 03:12:03;;;;;;;19.27;10.60;;;;;;;9.56;58.76;97650.34;5095784;28;20940;-38
2022/03/28 03:14:30;;;;;;;13.67;8.43;;;;;;;9.50;58.83;97642.41;5095707;28;21003;-38
2022/03/28 03:16:57;;;;;;;20.13;10.50;;;;;;;9.45;58.86;97639.56;5095771;28;20799;-38
2022/03/28 03:19:24;;;;;;;24.10;13.03;;;;;;;9.35;59.05;97650.59;5095642;28;20443;-38
2022/03/28 03:21:53;;;;;;;28.60;13.73;;;;;;;9.27;59.15;97654.28;5095622;28;20812;-38
2022/03/28 03:24:20;;;;;;;13.40;8.80;;;;;;;9.16;59.11;97654.91;5094985;28;20565;-38
2022/03/28 03:26:48;;;;;;;14.30;5.67;;;;;;;9.01;59.40;97653.31;5095403;28;21041;-38
2022/03/28 03:29:15;;;;;;;10.67;5.23;;;;;;;8.88;59.61;97645.34;5095471;28;20538;-38
2022/03/28 03:31:42;;;;;;;8.13;5.40;;;;;;;8.77;60.09;97648.59;5095316;28;20449;-38
2022/03/28 03:34:09;;;;;;;8.20;4.97;;;;;;;8.76;60.18;97655.75;5096182;28;20482;-37
2022/03/28 03:36:37;;;;;;;7.40;5.97;;;;;;;8.77;60.43;97648.59;5095301;28;20525;-38
2022/03/28 03:39:05;;;;;;;15.87;8.20;;;;;;;8.77;60.37;97661.84;5095598;28;20469;-38
2022/03/28 03:41:33;;;;;;;10.43;6.97;;;;;;;8.76;60.29;97662.88;5095283;28;20443;-38
2022/03/28 03:44:00;;;;;;;15.60;5.30;;;;;;;8.82;60.17;97670.03;5095225;28;20447;-38
2022/03/28 03:46:27;;;;;;;7.50;4.40;;;;;;;8.77;60.09;97667.16;5095665;28;20489;-38
2022/03/28 03:48:54;;;;;;;6.07;5.47;;;;;;;8.63;60.18;97653.09;5095104;28;20439;-39
2022/03/28 03:51:22;;;;;;;7.37;5.00;;;;;;;8.61;60.05;97655.13;5095068;28;20791;-38
2022/03/28 03:53:49;;;;;;;8.03;4.20;;;;;;;8.58;60.30;97659.00;5095058;28;20450;-38
2022/03/28 03:56:18;;;;;;;7.50;3.90;;;;;;;8.66;60.49;97657.16;5095254;28;20475;-38
2022/03/28 03:58:45;;;;;;;5.20;4.10;;;;;;;8.54;60.46;97635.75;5094939;28;20447;-38
2022/03/28 04:01:13;;;;;;;5.20;3.90;;;;;;;8.75;60.29;97662.03;5095027;28;20447;-39
2022/03/28 04:03:40;;;;;;;14.77;8.83;;;;;;;8.78;60.04;97660.84;5094732;28;20479;-37
2022/03/28 04:06:10;;;;;;;17.67;10.43;;;;;;;8.79;60.25;97668.56;5094985;28;20525;-38
2022/03/28 04:08:37;;;;;;;18.47;11.23;;;;;;;8.80;60.29;97658.81;5094672;28;20790;-38
2022/03/28 04:11:05;;;;;;;11.73;8.57;;;;;;;8.81;59.82;97663.88;5094646;28;20443;-39
2022/03/28 04:13:34;;;;;;;30.43;13.53;;;;;;;8.81;60.00;97657.78;5094513;28;20534;-40
2022/03/28 04:16:01;;;;;;;26.73;14.53;;;;;;;8.82;59.81;97656.78;5094908;28;20445;-38
2022/03/28 04:18:29;;;;;;;17.63;11.67;;;;;;;8.83;60.18;97663.69;5094438;28;20496;-38
2022/03/28 04:20:57;;;;;;;13.13;7.97;;;;;;;8.66;60.19;97636.00;5094499;28;20951;-38
2022/03/28 04:23:26;;;;;;;11.60;8.00;;;;;;;8.87;59.99;97653.50;5093210;28;20815;-39
2022/03/28 04:25:53;;;;;;;13.10;8.97;;;;;;;8.91;59.77;97681.22;5072783;28;20487;-38
2022/03/28 04:28:20;;;;;;;19.63;10.03;;;;;;;8.88;59.63;97676.31;5073753;28;20523;-38
2022/03/28 04:30:50;;;;;;;25.33;14.17;;;;;;;8.95;59.58;97675.31;5073649;28;20443;-38
2022/03/28 04:33:18;;;;;;;27.97;16.80;;;;;;;9.13;59.10;97679.16;5073361;28;20440;-37
2022/03/28 04:35:46;;;;;;;39.33;21.60;;;;;;;9.40;58.83;97679.97;5073045;28;20448;-39
2022/03/28 04:38:13;;;;;;;33.70;18.57;;;;;;;9.72;58.16;97680.91;5072645;28;20471;-38
2022/03/28 04:40:41;;;;;;;24.17;16.10;;;;;;;10.05;56.79;97687.91;5073155;28;20506;-38
2022/03/28 04:43:08;;;;;;;28.50;13.67;;;;;;;10.45;56.22;97687.72;5073122;28;20943;-38
2022/03/28 04:45:36;;;;;;;30.03;13.30;;;;;;;10.92;54.95;97682.09;5073443;28;20446;-38
2022/03/28 04:48:05;;;;;;;51.60;25.80;;;;;;;11.46;54.10;97689.38;5072755;28;20491;-39
2022/03/28 04:50:32;;;;;;;24.57;14.67;;;;;;;12.02;53.83;97694.72;5073306;28;20445;-38
2022/03/28 04:53:00;;;;;;;24.10;12.50;;;;;;;12.43;52.56;97677.19;5072882;28;20527;-38
2022/03/28 04:55:27;;;;;;;34.40;17.83;;;;;;;12.84;51.06;97675.56;5073113;28;20526;-39
2022/03/28 04:57:54;;;;;;;30.83;15.77;;;;;;;13.42;49.21;97701.53;5072718;28;20444;-39
2022/03/28 05:00:21;;;;;;;28.10;12.77;;;;;;;13.87;47.65;97703.56;5073239;28;20513;-39
2022/03/28 05:02:49;;;;;;;31.70;11.60;;;;;;;14.21;46.49;97708.22;5073222;28;20444;-40
2022/03/28 05:05:17;;;;;;;23.57;11.17;;;;;;;14.56;45.33;97708.09;5072924;28;20494;-39
2022/03/28 05:07:45;;;;;;;19.47;10.77;;;;;;;14.92;44.71;97698.06;5084573;28;20482;-39
2022/03/28 05:10:12;;;;;;;47.37;25.97;;;;;;;15.25;43.92;97699.09;5093893;28;20458;-39
2022/03/28 05:12:39;;;;;;;29.10;17.30;;;;;;;15.48;43.18;97696.25;5093906;28;20842;-38
2022/03/28 05:15:07;;;;;;;29.77;16.97;;;;;;;15.72;43.29;97696.91;5094743;28;20446;-38
2022/03/28 05:17:35;;;;;;;76.80;42.30;;;;;;;16.11;42.41;97709.41;5093875;28;20443;-38
2022/03/28 05:20:02;;;;;;;79.10;52.07;;;;;;;16.38;41.43;97704.91;5093619;28;20442;-38
2022/03/28 05:22:31;;;;;;;38.73;26.83;;;;;;;16.69;41.21;97704.41;5093745;28;20482;-41
2022/03/28 05:24:59;;;;;;;25.30;15.77;;;;;;;16.89;40.53;97703.84;5093536;28;20542;-39
2022/03/28 05:27:26;;;;;;;14.90;11.87;;;;;;;17.12;40.52;97700.81;5093250;28;20490;-38
2022/03/28 05:29:53;;;;;;;14.50;10.10;;;;;;;17.41;39.91;97705.84;5093767;28;20439;-38
2022/03/28 05:32:20;;;;;;;13.13;8.50;;;;;;;17.58;39.83;97698.44;5092891;28;20439;-39
2022/03/28 05:34:47;;;;;;;13.70;8.83;;;;;;;17.82;39.33;97690.03;5092978;28;20532;-39
2022/03/28 05:37:16;;;;;;;22.00;8.80;;;;;;;18.08;38.55;97693.63;5091200;28;20530;-39
2022/03/28 05:39:47;;;;;;;11.77;9.90;;;;;;;18.31;38.26;97700.44;5093950;28;20776;-38
2022/03/28 05:42:14;;;;;;;14.80;10.63;;;;;;;18.57;36.66;97695.13;5092574;28;20445;-40
2022/03/28 05:44:42;;;;;;;15.47;9.00;;;;;;;18.63;36.68;97707.50;5092606;28;20477;-39
2022/03/28 05:47:10;;;;;;;12.70;8.53;;;;;;;18.81;37.85;97706.22;5092811;28;20497;-40
2022/03/28 05:49:37;;;;;;;17.27;12.30;;;;;;;18.93;37.73;97711.34;5097423;28;20443;-39
2022/03/28 05:52:05;;;;;;;17.27;10.10;;;;;;;19.13;37.72;97708.66;5097400;28;20449;-39
2022/03/28 05:54:32;;;;;;;9.30;7.87;;;;;;;19.39;37.35;97706.75;5097288;28;20438;-39
2022/03/28 05:57:01;;;;;;;12.40;6.93;;;;;;;19.61;36.84;97708.34;5097211;28;20442;-40
2022/03/28 05:59:29;;;;;;;8.83;6.60;;;;;;;19.68;36.45;97695.41;5097278;28;20512;-39
2022/03/28 06:01:56;;;;;;;12.60;6.40;;;;;;;19.79;35.49;97710.50;5097130;28;20447;-40
2022/03/28 06:04:23;;;;;;;11.77;6.20;;;;;;;19.97;35.10;97705.59;5097118;28;20500;-39
2022/03/28 06:06:51;;;;;;;19.80;13.07;;;;;;;19.94;36.12;97701.56;5097350;28;20482;-39
2022/03/28 06:09:18;;;;;;;13.33;8.07;;;;;;;19.83;35.34;97698.09;5096569;28;20439;-41
2022/03/28 06:11:45;;;;;;;12.90;7.17;;;;;;;19.78;35.61;97698.09;5096384;28;20439;-39
2022/03/28 06:14:14;;;;;;;9.77;5.63;;;;;;;19.82;35.60;97701.06;5096495;28;20439;-39
2022/03/28 06:16:41;;;;;;;13.43;6.00;;;;;;;19.75;35.57;97704.03;5096909;28;20526;-39
2022/03/28 06:19:08;;;;;;;11.57;6.20;;;;;;;19.39;35.94;97705.97;5096760;28;20447;-38
2022/03/28 06:21:35;;;;;;;6.43;5.20;;;;;;;19.69;36.12;97704.31;5097206;28;20439;-40
2022/03/28 06:24:03;;;;;;;12.80;6.67;;;;;;;19.96;36.00;97710.19;5096688;28;20438;-40
2022/03/28 06:26:31;;;;;;;10.70;6.33;;;;;;;20.39;36.12;97704.31;5096794;28;20427;-39
2022/03/28 06:28:58;;;;;;;15.97;7.00;;;;;;;20.38;35.64;97708.91;5096683;28;20489;-39
2022/03/28 06:31:27;;;;;;;7.40;6.07;;;;;;;20.09;31.96;97702.56;5096925;28;20437;-39
2022/03/28 06:34:01;;;;;;;9.67;7.10;;;;;;;19.99;32.51;97709.63;5096689;28;21025;-38
2022/03/28 06:36:29;;;;;;;8.70;5.60;;;;;;;20.19;31.47;97713.31;5096582;28;20429;-39
2022/03/28 06:38:57;;;;;;;7.90;5.10;;;;;;;20.27;32.41;97712.75;5096494;28;20918;-38
2022/03/28 06:41:24;;;;;;;8.70;5.20;;;;;;;20.35;30.73;97712.19;5096815;28;20447;-38
2022/03/28 06:43:52;;;;;;;8.50;5.20;;;;;;;20.26;30.91;97703.03;5096402;28;20975;-38
2022/03/28 06:46:20;;;;;;;7.20;5.57;;;;;;;20.24;31.43;97707.91;5096721;28;20439;-38
2022/03/28 06:48:50;;;;;;;7.37;5.80;;;;;;;20.29;30.72;97702.50;5096135;28;21010;-40
2022/03/28 06:51:17;;;;;;;6.03;5.30;;;;;;;19.95;29.51;97713.94;5096229;28;20475;-38
2022/03/28 06:53:48;;;;;;;9.50;6.00;;;;;;;20.09;30.29;97702.56;5096143;28;20443;-39
2022/03/28 06:56:15;;;;;;;16.53;9.60;;;;;;;20.24;29.72;97707.91;5096249;28;20456;-38
2022/03/28 06:58:43;;;;;;;9.23;6.00;;;;;;;20.14;28.79;97707.97;5096417;28;20446;-38
2022/03/28 07:01:10;;;;;;;7.70;5.57;;;;;;;20.24;29.12;97706.03;5095250;28;20451;-39
2022/03/28 07:03:38;;;;;;;10.53;5.13;;;;;;;20.38;28.64;97717.00;5096091;28;20442;-38
2022/03/28 07:06:08;;;;;;;7.70;6.10;;;;;;;20.49;29.82;97706.19;5096242;28;20521;-38
2022/03/28 07:08:36;;;;;;;8.63;6.60;;;;;;;20.80;29.36;97713.03;5095908;28;20982;-39
2022/03/28 07:11:04;;;;;;;12.00;6.37;;;;;;;21.01;28.41;97718.28;5095859;28;20522;-39
2022/03/28 07:13:31;;;;;;;10.07;5.77;;;;;;;21.13;28.47;97718.72;5095829;28;20442;-38
2022/03/28 07:15:58;;;;;;;7.03;4.33;;;;;;;21.13;27.97;97707.94;5095388;28;20449;-39
2022/03/28 07:18:26;;;;;;;7.17;5.63;;;;;;;21.10;28.09;97721.19;5095698;28;20439;-38
2022/03/28 07:20:53;;;;;;;9.27;6.43;;;;;;;21.30;28.66;97720.22;5095706;28;21001;-39
2022/03/28 07:23:22;;;;;;;11.60;5.93;;;;;;;21.52;28.32;97706.28;5095627;28;20482;-38
2022/03/28 07:25:50;;;;;;;15.23;5.53;;;;;;;21.30;27.21;97698.63;5095438;28;20557;-38
2022/03/28 07:28:18;;;;;;;7.43;5.80;;;;;;;21.42;27.60;97690.97;5095434;28;20577;-38
2022/03/28 07:30:46;;;;;;;14.07;9.27;;;;;;;21.66;28.24;97707.19;5095518;28;20855;-38
2022/03/28 07:33:13;;;;;;;11.50;7.97;;;;;;;21.70;28.20;97702.03;5095478;28;20458;-38
2022/03/28 07:35:41;;;;;;;18.97;13.17;;;;;;;21.58;28.16;97684.31;5095345;28;20443;-38
2022/03/28 07:38:10;;;;;;;12.83;6.80;;;;;;;21.80;28.59;97697.31;5095343;28;20991;-39
2022/03/28 07:40:40;;;;;;;9.77;8.70;;;;;;;21.81;27.18;97700.81;5095236;28;20447;-38
2022/03/28 07:43:08;;;;;;;11.43;6.23;;;;;;;21.76;27.97;97684.69;5095545;28;20818;-39
2022/03/28 07:45:36;;;;;;;7.67;5.47;;;;;;;21.89;27.36;97698.28;5095449;28;20812;-38
2022/03/28 07:48:05;;;;;;;8.67;5.90;;;;;;;22.18;28.27;97691.22;5095091;28;20522;-38
2022/03/28 07:50:32;;;;;;;15.10;6.10;;;;;;;22.25;27.73;97697.09;5095385;28;20455;-38
2022/03/28 07:52:59;;;;;;;8.50;5.37;;;;;;;22.37;28.77;97689.38;5094863;28;20445;-39
2022/03/28 07:55:28;;;;;;;5.80;4.03;;;;;;;22.60;29.23;97687.69;5094951;28;20795;-38
2022/03/28 07:57:59;;;;;;;8.87;5.77;;;;;;;22.68;27.81;97683.53;5094312;28;20447;-38
2022/03/28 08:00:28;;;;;;;7.83;5.20;;;;;;;22.73;28.50;97677.25;5094746;28;20431;-38
2022/03/28 08:02:56;;;;;;;7.47;6.40;;;;;;;22.73;27.89;97686.16;5094831;28;20553;-39
2022/03/28 08:05:23;;;;;;;7.63;5.37;;;;;;;22.71;27.86;97682.94;5094630;28;20439;-35
2022/03/28 08:07:51;;;;;;;5.90;5.30;;;;;;;22.28;28.79;97677.59;5095177;28;20526;-39
2022/03/28 08:10:18;;;;;;;6.67;5.97;;;;;;;22.37;28.74;97675.03;5094716;28;20443;-39
2022/03/28 08:12:45;;;;;;;7.50;5.73;;;;;;;22.61;27.91;97677.69;5094774;28;20923;-38
2022/03/28 08:15:16;;;;;;;18.23;12.77;;;;;;;22.46;28.20;97666.00;5094561;28;20445;-38
2022/03/28 08:17:44;;;;;;;8.40;6.47;;;;;;;22.60;28.82;97670.66;5093963;28;20435;-37
2022/03/28 08:20:13;;;;;;;8.60;6.10;;;;;;;22.59;28.04;97663.66;5093003;28;20439;-38
2022/03/28 08:22:44;;;;;;;9.13;5.40;;;;;;;22.62;28.44;97661.16;5094139;28;20454;-39
2022/03/28 08:25:13;;;;;;;10.80;5.90;;;;;;;22.63;28.59;97653.84;5093668;28;20478;-38
2022/03/28 08:27:41;;;;;;;10.30;5.03;;;;;;;22.58;27.31;97656.63;5093921;28;20526;-39
2022/03/28 08:30:09;;;;;;;8.30;6.27;;;;;;;22.63;27.32;97656.56;5093888;28;20480;-38
2022/03/28 08:32:38;;;;;;;9.10;5.83;;;;;;;22.62;27.55;97657.66;5094221;28;20481;-38
2022/03/28 08:35:07;;;;;;;11.50;7.13;;;;;;;22.39;27.92;97624.16;5094296;28;20953;-38
2022/03/28 08:37:35;;;;;;;8.07;6.60;;;;;;;22.53;27.42;97660.22;5094380;28;20923;-38
2022/03/28 08:40:02;;;;;;;16.50;7.70;;;;;;;22.67;28.19;97646.72;5094524;28;20443;-39
2022/03/28 08:42:29;;;;;;;15.63;6.13;;;;;;;22.44;28.13;97643.03;5094183;28;20534;-35
2022/03/28 08:44:57;;;;;;;11.97;5.87;;;;;;;22.63;28.11;97637.63;5094370;28;20478;-35
2022/03/28 08:47:25;;;;;;;9.57;6.20;;;;;;;22.86;28.60;97642.09;5094347;28;20439;-37
2022/03/28 08:49:55;;;;;;;15.20;5.77;;;;;;;22.60;27.77;97638.19;5093910;28;20435;-39
2022/03/28 08:52:24;;;;;;;13.90;7.97;;;;;;;22.64;28.74;97636.50;5094033;28;20970;-38
2022/03/28 08:54:52;;;;;;;11.43;7.10;;;;;;;22.82;28.75;97634.88;5094161;28;20473;-38
2022/03/28 08:57:19;;;;;;;11.43;6.23;;;;;;;23.10;27.95;97635.78;5093908;28;20926;-34
2022/03/28 08:59:47;;;;;;;8.30;6.60;;;;;;;23.24;27.27;97620.38;5093584;28;20956;-38
2022/03/28 09:02:39;;;;;;;8.90;5.33;;;;;;;22.74;27.45;97628.25;5093670;28;20479;-39
2022/03/28 09:05:08;;;;;;;8.80;6.30;;;;;;;22.60;27.54;97624.66;5093984;28;20787;-35
2022/03/28 09:07:36;;;;;;;8.17;5.83;;;;;;;22.56;27.09;97626.34;5093656;28;20443;-38
2022/03/28 09:10:06;;;;;;;8.83;5.40;;;;;;;22.70;27.49;97616.38;5093911;28;20450;-35
2022/03/28 09:12:39;;;;;;;11.20;5.97;;;;;;;22.63;26.98;97613.25;5093827;28;20469;-39
2022/03/28 09:15:09;;;;;;;10.83;6.50;;;;;;;22.27;26.85;97598.34;5093579;28;20514;-38
2022/03/28 09:17:40;;;;;;;7.63;5.60;;;;;;;21.75;27.78;97592.00;5093480;28;20530;-38
2022/03/28 09:20:10;;;;;;;12.80;6.10;;;;;;;21.62;28.14;97593.50;5093938;28;20439;-38
2022/03/28 09:22:41;;;;;;;11.53;6.47;;;;;;;21.65;28.38;97595.63;5093573;28;20443;-38
2022/03/28 09:25:10;;;;;;;10.63;6.00;;;;;;;21.68;28.56;97592.34;5072369;28;20475;-39
2022/03/28 09:27:40;;;;;;;12.80;6.40;;;;;;;21.67;28.18;97574.53;5089251;28;20474;-38
2022/03/28 09:30:10;;;;;;;8.80;5.37;;;;;;;21.79;28.07;97581.41;5093825;28;20930;-39
2022/03/28 09:32:38;;;;;;;12.20;6.50;;;;;;;22.02;27.97;97579.75;5093421;28;20435;-38
2022/03/28 09:35:13;;;;;;;11.60;6.53;;;;;;;22.27;27.51;97581.34;5093438;28;20450;-38
2022/03/28 09:38:08;;;;;;;9.47;6.73;;;;;;;22.53;27.21;97583.66;5093412;28;20430;-39
2022/03/28 09:40:38;;;;;;;12.00;6.30;;;;;;;22.79;26.67;97576.72;5071236;28;20436;-38
2022/03/28 09:43:07;;;;;;;8.07;5.73;;;;;;;22.95;26.35;97568.31;5071055;28;20487;-39
2022/03/28 09:45:38;;;;;;;12.23;6.27;;;;;;;22.81;27.22;97563.69;5071101;28;20443;-38
2022/03/28 09:48:07;;;;;;;10.13;6.63;;;;;;;22.56;26.53;97570.31;5070987;28;20479;-39
2022/03/28 09:50:42;;;;;;;11.53;7.83;;;;;;;21.88;27.43;97568.88;5071272;28;20444;-39
2022/03/28 09:53:25;;;;;;;10.97;6.40;;;;;;;21.94;27.80;97566.88;5071028;28;20497;-38
2022/03/28 09:55:54;;;;;;;9.83;7.33;;;;;;;21.99;27.63;97569.53;5071187;28;20839;-38
2022/03/28 09:58:39;;;;;;;9.40;6.20;;;;;;;22.02;27.04;97542.69;5071812;28;20471;-38
2022/03/28 10:01:08;;;;;;;13.93;7.80;;;;;;;22.30;27.13;97567.22;5071245;28;20843;-39
2022/03/28 10:03:37;;;;;;;11.97;7.63;;;;;;;22.36;26.75;97557.94;5071223;28;20438;-38
2022/03/28 10:06:07;;;;;;;8.40;6.57;;;;;;;21.95;27.31;97553.09;5070806;28;20516;-38
2022/03/28 10:08:36;;;;;;;9.53;7.27;;;;;;;21.60;27.80;97552.47;5071657;28;20583;-37
2022/03/28 10:11:04;;;;;;;8.87;5.97;;;;;;;21.25;28.00;97542.84;5070845;28;20467;-38
2022/03/28 10:13:31;;;;;;;11.10;6.20;;;;;;;20.75;28.26;97532.28;5070884;28;20439;-38
2022/03/28 10:15:59;;;;;;;12.17;8.10;;;;;;;20.83;28.62;97528.16;5078659;28;20474;-37
2022/03/28 10:18:29;;;;;;;17.20;6.90;;;;;;;20.75;29.11;97510.69;5092923;28;20492;-38
2022/03/28 10:21:00;;;;;;;12.80;6.50;;;;;;;20.94;28.97;97499.19;5093385;28;20758;-38
2022/03/28 10:23:34;;;;;;;11.67;7.33;;;;;;;21.38;27.59;97525.13;5092959;28;20470;-38
2022/03/28 10:26:03;;;;;;;14.23;8.30;;;;;;;21.39;27.94;97518.66;5092914;28;20481;-37
2022/03/28 10:28:30;;;;;;;12.47;7.30;;;;;;;21.23;27.86;97521.53;5092809;28;21025;-37
2022/03/28 10:31:17;;;;;;;19.30;7.00;;;;;;;21.10;28.30;97524.09;5093212;28;20439;-34
2022/03/28 10:33:50;;;;;;;9.77;7.57;;;;;;;21.11;28.55;97518.44;5092910;28;20793;-38
2022/03/28 10:36:30;;;;;;;70.47;24.00;;;;;;;20.88;28.68;97498.44;5096300;28;20446;-38
2022/03/28 10:39:33;;;;;;;10.83;7.40;;;;;;;20.98;28.45;97508.31;5096700;28;20465;-38
2022/03/28 10:42:08;;;;;;;9.37;5.80;;;;;;;20.94;28.63;97512.69;5096748;28;20435;-37
2022/03/28 10:45:02;;;;;;;14.50;7.03;;;;;;;21.06;28.62;97495.00;5096744;28;20473;-38
2022/03/28 10:47:43;;;;;;;11.13;7.63;;;;;;;21.13;28.02;97491.94;5096390;28;20427;-38
2022/03/28 10:50:12;;;;;;;9.40;5.90;;;;;;;21.10;28.84;97500.63;5096198;28;20565;-37
2022/03/28 10:52:39;;;;;;;19.17;8.20;;;;;;;21.22;29.24;97492.91;5096465;28;20447;-38
2022/03/28 10:55:10;;;;;;;12.67;7.77;;;;;;;21.41;29.40;97489.47;5096776;28;20575;-38
2022/03/28 10:57:39;;;;;;;9.90;7.17;;;;;;;21.72;28.79;97483.69;5096756;28;20428;-38
2022/03/28 11:00:09;;;;;;;12.33;7.70;;;;;;;21.68;28.19;97481.56;5096083;28;20443;-38
2022/03/28 11:02:38;;;;;;;14.80;7.67;;;;;;;21.38;28.86;97468.41;5096102;28;20986;-38
2022/03/28 11:05:13;;;;;;;13.90;6.97;;;;;;;21.37;29.00;97472.22;5095940;28;20449;-39
2022/03/28 11:07:40;;;;;;;10.07;6.57;;;;;;;21.42;29.01;97453.28;5095985;28;20521;-38
2022/03/28 11:10:13;;;;;;;16.80;8.27;;;;;;;21.62;28.66;97463.81;5095858;28;20978;-38
2022/03/28 11:12:42;;;;;;;19.13;8.53;;;;;;;21.29;28.87;97454.75;5095922;28;20432;-37
2022/03/28 11:15:18;;;;;;;10.97;7.47;;;;;;;21.09;29.43;97438.84;5095704;28;20946;-39
2022/03/28 11:17:57;;;;;;;16.47;7.60;;;;;;;21.27;30.08;97441.56;5096384;28;20530;-39
2022/03/28 11:20:27;;;;;;;16.67;7.67;;;;;;;21.49;29.57;97448.34;5095636;28;20443;-39
2022/03/28 11:22:57;;;;;;;14.57;8.73;;;;;;;21.57;29.44;97436.84;5095694;28;20494;-38
2022/03/28 11:25:46;;;;;;;16.73;7.93;;;;;;;21.71;28.96;97438.84;5095589;28;20502;-38
2022/03/28 11:28:28;;;;;;;12.83;8.80;;;;;;;21.74;28.60;97438.25;5095843;28;20500;-39
2022/03/28 11:31:00;;;;;;;11.37;7.33;;;;;;;21.66;28.74;97421.63;5094787;28;20927;-39
2022/03/28 11:33:39;;;;;;;18.60;8.57;;;;;;;21.56;28.08;97427.16;5095764;28;20431;-38
2022/03/28 11:36:08;;;;;;;19.50;8.40;;;;;;;21.42;29.41;97427.09;5095380;28;20440;-38